sensor_id;sensor_type;location;lat;lon;timestamp;temperature;humidity
21487;DHT22;10905;50.822;4.336;2023-04-25T00:00:58;10.10;99.90
21487;DHT22;10905;50.822;4.336;2023-04-25T00:03:23;10.10;99.90
21487;DHT22;10905;50.822;4.336;2023-04-25T00:05:50;10.00;99.90
21487;DHT22;10905;50.822;4.336;2023-04-25T00:08:17;9.90;99.90
21487;DHT22;10905;50.822;4.336;2023-04-25T00:10:42;9.90;99.90
21487;DHT22;10905;50.822;4.336;2023-04-25T00:13:08;10.00;99.90
21487;DHT22;10905;50.822;4.336;2023-04-25T00:15:34;10.00;99.90
21487;DHT22;10905;50.822;4.336;2023-04-25T00:18:01;9.90;99.90
21487;DHT22;10905;50.822;4.336;2023-04-25T00:20:26;9.90;99.90
21487;DHT22;10905;50.822;4.336;2023-04-25T00:22:52;9.80;99.90
21487;DHT22;10905;50.822;4.336;2023-04-25T00:25:21;9.80;99.90
21487;DHT22;10905;50.822;4.336;2023-04-25T00:27:46;9.80;99.90
21487;DHT22;10905;50.822;4.336;2023-04-25T00:30:12;9.80;99.90
21487;DHT22;10905;50.822;4.336;2023-04-25T00:32:37;9.80;99.90
21487;DHT22;10905;50.822;4.336;2023-04-25T00:35:03;9.80;99.90
21487;DHT22;10905;50.822;4.336;2023-04-25T00:37:29;9.70;99.90
21487;DHT22;10905;50.822;4.336;2023-04-25T00:39:54;9.70;99.90
21487;DHT22;10905;50.822;4.336;2023-04-25T00:42:21;9.60;99.90
21487;DHT22;10905;50.822;4.336;2023-04-25T00:44:46;9.60;99.90
21487;DHT22;10905;50.822;4.336;2023-04-25T00:47:12;9.50;99.90
21487;DHT22;10905;50.822;4.336;2023-04-25T00:49:38;9.30;99.90
21487;DHT22;10905;50.822;4.336;2023-04-25T00:52:04;9.30;99.90
21487;DHT22;10905;50.822;4.336;2023-04-25T00:54:29;9.30;99.90
21487;DHT22;10905;50.822;4.336;2023-04-25T00:56:56;9.30;99.90
21487;DHT22;10905;50.822;4.336;2023-04-25T00:59:21;9.40;99.90
21487;DHT22;10905;50.822;4.336;2023-04-25T01:01:47;9.30;99.90
21487;DHT22;10905;50.822;4.336;2023-04-25T01:04:13;9.40;99.90
21487;DHT22;10905;50.822;4.336;2023-04-25T01:06:38;9.50;99.90
21487;DHT22;10905;50.822;4.336;2023-04-25T01:09:04;9.60;99.90
21487;DHT22;10905;50.822;4.336;2023-04-25T01:11:30;9.50;99.90
21487;DHT22;10905;50.822;4.336;2023-04-25T01:13:56;9.40;99.90
21487;DHT22;10905;50.822;4.336;2023-04-25T01:16:21;9.30;99.90
21487;DHT22;10905;50.822;4.336;2023-04-25T01:18:49;9.30;99.90
21487;DHT22;10905;50.822;4.336;2023-04-25T01:21:16;9.40;99.90
21487;DHT22;10905;50.822;4.336;2023-04-25T01:23:41;9.30;99.90
21487;DHT22;10905;50.822;4.336;2023-04-25T01:26:10;9.40;99.90
21487;DHT22;10905;50.822;4.336;2023-04-25T01:28:37;9.30;99.90
21487;DHT22;10905;50.822;4.336;2023-04-25T01:31:02;9.30;99.90
21487;DHT22;10905;50.822;4.336;2023-04-25T01:33:28;9.20;99.90
21487;DHT22;10905;50.822;4.336;2023-04-25T01:35:54;9.20;99.90
21487;DHT22;10905;50.822;4.336;2023-04-25T01:38:20;9.20;99.90
21487;DHT22;10905;50.822;4.336;2023-04-25T01:40:45;9.20;99.90
21487;DHT22;10905;50.822;4.336;2023-04-25T01:43:12;9.10;99.90
21487;DHT22;10905;50.822;4.336;2023-04-25T01:45:40;9.20;99.90
21487;DHT22;10905;50.822;4.336;2023-04-25T01:48:09;9.20;99.90
21487;DHT22;10905;50.822;4.336;2023-04-25T01:50:35;9.30;99.90
21487;DHT22;10905;50.822;4.336;2023-04-25T01:53:01;9.30;99.90
21487;DHT22;10905;50.822;4.336;2023-04-25T01:55:27;9.30;99.90
21487;DHT22;10905;50.822;4.336;2023-04-25T01:57:53;9.20;99.90
21487;DHT22;10905;50.822;4.336;2023-04-25T02:00:18;9.30;99.90
21487;DHT22;10905;50.822;4.336;2023-04-25T02:02:44;9.20;99.90
21487;DHT22;10905;50.822;4.336;2023-04-25T02:05:09;9.10;99.90
21487;DHT22;10905;50.822;4.336;2023-04-25T02:07:35;8.90;99.90
21487;DHT22;10905;50.822;4.336;2023-04-25T02:10:00;8.90;99.90
21487;DHT22;10905;50.822;4.336;2023-04-25T02:12:27;8.90;99.90
21487;DHT22;10905;50.822;4.336;2023-04-25T02:14:53;8.80;99.90
21487;DHT22;10905;50.822;4.336;2023-04-25T02:17:18;8.80;99.90
21487;DHT22;10905;50.822;4.336;2023-04-25T02:19:44;8.90;99.90
21487;DHT22;10905;50.822;4.336;2023-04-25T02:22:10;8.90;99.90
21487;DHT22;10905;50.822;4.336;2023-04-25T02:24:35;8.80;99.90
21487;DHT22;10905;50.822;4.336;2023-04-25T02:27:01;8.80;99.90
21487;DHT22;10905;50.822;4.336;2023-04-25T02:29:26;8.80;99.90
21487;DHT22;10905;50.822;4.336;2023-04-25T02:31:52;8.80;99.90
21487;DHT22;10905;50.822;4.336;2023-04-25T02:34:17;8.80;99.90
21487;DHT22;10905;50.822;4.336;2023-04-25T02:36:43;8.80;99.90
21487;DHT22;10905;50.822;4.336;2023-04-25T02:39:08;8.70;99.90
21487;DHT22;10905;50.822;4.336;2023-04-25T02:41:34;8.80;99.90
21487;DHT22;10905;50.822;4.336;2023-04-25T02:43:59;8.80;99.90
21487;DHT22;10905;50.822;4.336;2023-04-25T02:46:25;8.80;99.90
21487;DHT22;10905;50.822;4.336;2023-04-25T02:48:51;8.70;99.90
21487;DHT22;10905;50.822;4.336;2023-04-25T02:51:16;8.70;99.90
21487;DHT22;10905;50.822;4.336;2023-04-25T02:53:42;8.60;99.90
21487;DHT22;10905;50.822;4.336;2023-04-25T02:56:07;8.50;99.90
21487;DHT22;10905;50.822;4.336;2023-04-25T02:58:33;8.60;99.90
21487;DHT22;10905;50.822;4.336;2023-04-25T03:00:58;8.70;99.90
21487;DHT22;10905;50.822;4.336;2023-04-25T03:03:24;8.70;99.90
21487;DHT22;10905;50.822;4.336;2023-04-25T03:05:50;8.80;99.90
21487;DHT22;10905;50.822;4.336;2023-04-25T03:08:19;8.80;99.90
21487;DHT22;10905;50.822;4.336;2023-04-25T03:10:45;8.80;99.90
21487;DHT22;10905;50.822;4.336;2023-04-25T03:13:10;8.80;99.90
21487;DHT22;10905;50.822;4.336;2023-04-25T03:15:36;8.90;99.90
21487;DHT22;10905;50.822;4.336;2023-04-25T03:18:02;8.80;99.90
21487;DHT22;10905;50.822;4.336;2023-04-25T03:20:27;8.80;99.90
21487;DHT22;10905;50.822;4.336;2023-04-25T03:22:53;8.80;99.90
21487;DHT22;10905;50.822;4.336;2023-04-25T03:25:19;8.80;99.90
21487;DHT22;10905;50.822;4.336;2023-04-25T03:27:44;8.90;99.90
21487;DHT22;10905;50.822;4.336;2023-04-25T03:30:10;8.70;99.90
21487;DHT22;10905;50.822;4.336;2023-04-25T03:32:36;8.70;99.90
21487;DHT22;10905;50.822;4.336;2023-04-25T03:35:01;8.70;99.90
21487;DHT22;10905;50.822;4.336;2023-04-25T03:37:27;8.70;99.90
21487;DHT22;10905;50.822;4.336;2023-04-25T03:39:52;8.70;99.90
21487;DHT22;10905;50.822;4.336;2023-04-25T03:42:18;8.70;99.90
21487;DHT22;10905;50.822;4.336;2023-04-25T03:44:44;8.50;99.90
21487;DHT22;10905;50.822;4.336;2023-04-25T03:47:10;8.50;99.90
21487;DHT22;10905;50.822;4.336;2023-04-25T03:49:36;8.50;99.90
21487;DHT22;10905;50.822;4.336;2023-04-25T03:52:02;8.40;99.90
21487;DHT22;10905;50.822;4.336;2023-04-25T03:54:28;8.50;99.90
21487;DHT22;10905;50.822;4.336;2023-04-25T03:56:53;8.50;99.90
21487;DHT22;10905;50.822;4.336;2023-04-25T03:59:19;8.50;99.90
21487;DHT22;10905;50.822;4.336;2023-04-25T04:01:44;8.40;99.90
21487;DHT22;10905;50.822;4.336;2023-04-25T04:04:10;8.40;99.90
21487;DHT22;10905;50.822;4.336;2023-04-25T04:06:35;8.30;99.90
21487;DHT22;10905;50.822;4.336;2023-04-25T04:09:02;8.20;99.90
21487;DHT22;10905;50.822;4.336;2023-04-25T04:11:27;8.10;99.90
21487;DHT22;10905;50.822;4.336;2023-04-25T04:13:53;8.20;99.90
21487;DHT22;10905;50.822;4.336;2023-04-25T04:16:18;8.30;99.90
21487;DHT22;10905;50.822;4.336;2023-04-25T04:18:45;8.30;99.90
21487;DHT22;10905;50.822;4.336;2023-04-25T04:21:10;8.40;99.90
21487;DHT22;10905;50.822;4.336;2023-04-25T04:23:36;8.40;99.90
21487;DHT22;10905;50.822;4.336;2023-04-25T04:26:02;8.40;99.90
21487;DHT22;10905;50.822;4.336;2023-04-25T04:28:28;8.40;99.90
21487;DHT22;10905;50.822;4.336;2023-04-25T04:30:53;8.30;99.90
21487;DHT22;10905;50.822;4.336;2023-04-25T04:33:19;8.30;99.90
21487;DHT22;10905;50.822;4.336;2023-04-25T04:35:45;8.50;99.90
21487;DHT22;10905;50.822;4.336;2023-04-25T04:38:12;8.50;99.90
21487;DHT22;10905;50.822;4.336;2023-04-25T04:40:40;8.60;99.90
21487;DHT22;10905;50.822;4.336;2023-04-25T04:43:07;8.60;99.90
21487;DHT22;10905;50.822;4.336;2023-04-25T04:45:34;8.50;99.90
21487;DHT22;10905;50.822;4.336;2023-04-25T04:47:59;8.50;99.90
21487;DHT22;10905;50.822;4.336;2023-04-25T04:50:25;8.50;99.90
21487;DHT22;10905;50.822;4.336;2023-04-25T04:52:51;8.50;99.90
21487;DHT22;10905;50.822;4.336;2023-04-25T04:55:17;8.50;99.90
21487;DHT22;10905;50.822;4.336;2023-04-25T04:57:42;8.40;99.90
21487;DHT22;10905;50.822;4.336;2023-04-25T05:00:08;8.50;99.90
21487;DHT22;10905;50.822;4.336;2023-04-25T05:02:37;8.50;99.90
21487;DHT22;10905;50.822;4.336;2023-04-25T05:05:03;8.60;99.90
21487;DHT22;10905;50.822;4.336;2023-04-25T05:07:29;8.50;99.90
21487;DHT22;10905;50.822;4.336;2023-04-25T05:09:55;8.70;99.90
21487;DHT22;10905;50.822;4.336;2023-04-25T05:12:20;8.50;99.90
21487;DHT22;10905;50.822;4.336;2023-04-25T05:14:45;8.50;99.90
21487;DHT22;10905;50.822;4.336;2023-04-25T05:17:11;8.40;99.90
21487;DHT22;10905;50.822;4.336;2023-04-25T05:19:37;8.40;99.90
21487;DHT22;10905;50.822;4.336;2023-04-25T05:22:02;8.50;99.90
21487;DHT22;10905;50.822;4.336;2023-04-25T05:24:28;8.40;99.90
21487;DHT22;10905;50.822;4.336;2023-04-25T05:26:53;8.20;99.90
21487;DHT22;10905;50.822;4.336;2023-04-25T05:29:19;8.20;99.90
21487;DHT22;10905;50.822;4.336;2023-04-25T05:31:44;8.30;99.90
21487;DHT22;10905;50.822;4.336;2023-04-25T05:34:10;8.40;99.90
21487;DHT22;10905;50.822;4.336;2023-04-25T05:36:35;8.30;99.90
21487;DHT22;10905;50.822;4.336;2023-04-25T05:39:01;8.20;99.90
21487;DHT22;10905;50.822;4.336;2023-04-25T05:41:28;8.20;99.90
21487;DHT22;10905;50.822;4.336;2023-04-25T05:43:53;8.10;99.90
21487;DHT22;10905;50.822;4.336;2023-04-25T05:46:19;8.20;99.90
21487;DHT22;10905;50.822;4.336;2023-04-25T05:48:45;8.10;99.90
21487;DHT22;10905;50.822;4.336;2023-04-25T05:51:10;8.30;99.90
21487;DHT22;10905;50.822;4.336;2023-04-25T05:53:36;8.30;99.90
21487;DHT22;10905;50.822;4.336;2023-04-25T05:56:01;8.30;99.90
21487;DHT22;10905;50.822;4.336;2023-04-25T05:58:27;8.30;99.90
21487;DHT22;10905;50.822;4.336;2023-04-25T06:00:52;8.50;99.90
21487;DHT22;10905;50.822;4.336;2023-04-25T06:03:18;8.60;99.90
21487;DHT22;10905;50.822;4.336;2023-04-25T06:05:44;8.70;99.90
21487;DHT22;10905;50.822;4.336;2023-04-25T06:08:09;8.80;99.90
21487;DHT22;10905;50.822;4.336;2023-04-25T06:10:35;8.80;99.90
21487;DHT22;10905;50.822;4.336;2023-04-25T06:13:01;8.70;99.90
21487;DHT22;10905;50.822;4.336;2023-04-25T06:15:26;8.70;99.90
21487;DHT22;10905;50.822;4.336;2023-04-25T06:17:52;8.90;99.90
21487;DHT22;10905;50.822;4.336;2023-04-25T06:20:17;9.10;99.90
21487;DHT22;10905;50.822;4.336;2023-04-25T06:22:43;9.20;99.90
21487;DHT22;10905;50.822;4.336;2023-04-25T06:25:08;9.30;99.90
21487;DHT22;10905;50.822;4.336;2023-04-25T06:27:34;9.50;99.90
21487;DHT22;10905;50.822;4.336;2023-04-25T06:29:59;9.50;99.90
21487;DHT22;10905;50.822;4.336;2023-04-25T06:32:25;9.50;99.90
21487;DHT22;10905;50.822;4.336;2023-04-25T06:34:53;9.50;99.90
21487;DHT22;10905;50.822;4.336;2023-04-25T06:37:19;9.60;99.90
21487;DHT22;10905;50.822;4.336;2023-04-25T06:39:45;9.40;99.90
21487;DHT22;10905;50.822;4.336;2023-04-25T06:42:10;9.30;99.90
21487;DHT22;10905;50.822;4.336;2023-04-25T06:44:36;9.30;99.90
21487;DHT22;10905;50.822;4.336;2023-04-25T06:47:01;9.40;99.90
21487;DHT22;10905;50.822;4.336;2023-04-25T06:49:27;9.50;99.90
21487;DHT22;10905;50.822;4.336;2023-04-25T06:51:52;9.60;99.90
21487;DHT22;10905;50.822;4.336;2023-04-25T06:54:18;9.60;99.90
21487;DHT22;10905;50.822;4.336;2023-04-25T06:56:43;9.70;99.90
21487;DHT22;10905;50.822;4.336;2023-04-25T06:59:09;9.60;99.90
21487;DHT22;10905;50.822;4.336;2023-04-25T07:01:34;9.40;99.90
21487;DHT22;10905;50.822;4.336;2023-04-25T07:04:00;9.30;99.90
21487;DHT22;10905;50.822;4.336;2023-04-25T07:06:26;9.30;99.90
21487;DHT22;10905;50.822;4.336;2023-04-25T07:08:53;9.40;99.90
21487;DHT22;10905;50.822;4.336;2023-04-25T07:11:18;9.60;99.90
21487;DHT22;10905;50.822;4.336;2023-04-25T07:13:44;9.60;99.90
21487;DHT22;10905;50.822;4.336;2023-04-25T07:16:10;9.60;99.90
21487;DHT22;10905;50.822;4.336;2023-04-25T07:18:35;9.60;99.90
21487;DHT22;10905;50.822;4.336;2023-04-25T07:21:01;9.70;99.90
21487;DHT22;10905;50.822;4.336;2023-04-25T07:23:26;9.80;99.90
21487;DHT22;10905;50.822;4.336;2023-04-25T07:25:52;9.80;99.90
21487;DHT22;10905;50.822;4.336;2023-04-25T07:28:17;9.80;99.90
21487;DHT22;10905;50.822;4.336;2023-04-25T07:30:43;9.80;99.90
21487;DHT22;10905;50.822;4.336;2023-04-25T07:33:09;9.90;99.90
21487;DHT22;10905;50.822;4.336;2023-04-25T07:35:34;10.00;99.90
21487;DHT22;10905;50.822;4.336;2023-04-25T07:38:01;10.10;99.90
21487;DHT22;10905;50.822;4.336;2023-04-25T07:40:26;10.00;99.90
21487;DHT22;10905;50.822;4.336;2023-04-25T07:42:52;10.00;99.90
21487;DHT22;10905;50.822;4.336;2023-04-25T07:45:17;9.90;99.90
21487;DHT22;10905;50.822;4.336;2023-04-25T07:47:43;9.80;99.90
21487;DHT22;10905;50.822;4.336;2023-04-25T07:50:09;9.80;99.90
21487;DHT22;10905;50.822;4.336;2023-04-25T07:52:35;10.00;99.90
21487;DHT22;10905;50.822;4.336;2023-04-25T07:55:01;10.20;99.90
21487;DHT22;10905;50.822;4.336;2023-04-25T07:57:26;10.30;99.90
21487;DHT22;10905;50.822;4.336;2023-04-25T07:59:52;10.30;99.90
21487;DHT22;10905;50.822;4.336;2023-04-25T08:02:17;10.20;99.90
21487;DHT22;10905;50.822;4.336;2023-04-25T08:04:43;10.10;99.90
21487;DHT22;10905;50.822;4.336;2023-04-25T08:07:08;10.20;99.90
21487;DHT22;10905;50.822;4.336;2023-04-25T08:09:35;10.40;99.90
21487;DHT22;10905;50.822;4.336;2023-04-25T08:12:02;10.40;99.90
21487;DHT22;10905;50.822;4.336;2023-04-25T08:14:28;10.70;99.90
21487;DHT22;10905;50.822;4.336;2023-04-25T08:16:56;10.70;99.90
21487;DHT22;10905;50.822;4.336;2023-04-25T08:19:22;10.70;99.90
21487;DHT22;10905;50.822;4.336;2023-04-25T08:21:47;10.80;99.90
21487;DHT22;10905;50.822;4.336;2023-04-25T08:24:13;10.90;99.90
21487;DHT22;10905;50.822;4.336;2023-04-25T08:26:38;10.80;99.90
21487;DHT22;10905;50.822;4.336;2023-04-25T08:29:04;10.80;99.90
21487;DHT22;10905;50.822;4.336;2023-04-25T08:31:30;10.70;99.90
21487;DHT22;10905;50.822;4.336;2023-04-25T08:33:56;10.70;99.90
21487;DHT22;10905;50.822;4.336;2023-04-25T08:36:22;10.50;99.90
21487;DHT22;10905;50.822;4.336;2023-04-25T08:38:47;10.30;99.90
21487;DHT22;10905;50.822;4.336;2023-04-25T08:41:13;10.20;99.90
21487;DHT22;10905;50.822;4.336;2023-04-25T08:43:39;10.20;99.90
21487;DHT22;10905;50.822;4.336;2023-04-25T08:46:07;10.20;99.90
21487;DHT22;10905;50.822;4.336;2023-04-25T08:48:33;10.40;99.90
21487;DHT22;10905;50.822;4.336;2023-04-25T08:51:02;10.40;99.90
21487;DHT22;10905;50.822;4.336;2023-04-25T08:53:29;10.30;99.90
21487;DHT22;10905;50.822;4.336;2023-04-25T08:55:55;10.50;99.90
21487;DHT22;10905;50.822;4.336;2023-04-25T08:58:21;10.80;99.90
21487;DHT22;10905;50.822;4.336;2023-04-25T09:00:47;11.10;99.90
21487;DHT22;10905;50.822;4.336;2023-04-25T09:03:13;11.20;99.90
21487;DHT22;10905;50.822;4.336;2023-04-25T09:05:40;11.50;99.90
21487;DHT22;10905;50.822;4.336;2023-04-25T09:08:05;11.40;99.90
21487;DHT22;10905;50.822;4.336;2023-04-25T09:10:31;11.30;99.90
21487;DHT22;10905;50.822;4.336;2023-04-25T09:15:30;11.20;99.90
21487;DHT22;10905;50.822;4.336;2023-04-25T09:17:56;11.20;99.90
21487;DHT22;10905;50.822;4.336;2023-04-25T09:20:21;11.40;99.90
21487;DHT22;10905;50.822;4.336;2023-04-25T09:22:47;11.40;99.90
21487;DHT22;10905;50.822;4.336;2023-04-25T09:25:12;11.30;99.90
21487;DHT22;10905;50.822;4.336;2023-04-25T09:27:49;11.30;99.90
21487;DHT22;10905;50.822;4.336;2023-04-25T09:30:15;11.00;99.90
21487;DHT22;10905;50.822;4.336;2023-04-25T09:32:42;10.80;99.90
21487;DHT22;10905;50.822;4.336;2023-04-25T09:35:08;10.70;99.90
21487;DHT22;10905;50.822;4.336;2023-04-25T09:37:34;10.80;99.90
21487;DHT22;10905;50.822;4.336;2023-04-25T09:40:00;11.00;99.90
21487;DHT22;10905;50.822;4.336;2023-04-25T09:42:31;11.10;99.90
21487;DHT22;10905;50.822;4.336;2023-04-25T09:44:57;10.80;99.90
21487;DHT22;10905;50.822;4.336;2023-04-25T09:47:24;10.60;99.90
21487;DHT22;10905;50.822;4.336;2023-04-25T09:49:50;10.50;99.90
21487;DHT22;10905;50.822;4.336;2023-04-25T09:52:20;10.40;99.90
21487;DHT22;10905;50.822;4.336;2023-04-25T09:54:46;10.30;99.90
21487;DHT22;10905;50.822;4.336;2023-04-25T09:57:13;10.50;99.90
21487;DHT22;10905;50.822;4.336;2023-04-25T09:59:39;10.50;99.90
21487;DHT22;10905;50.822;4.336;2023-04-25T10:02:07;10.60;99.90
21487;DHT22;10905;50.822;4.336;2023-04-25T10:04:34;10.90;99.90
21487;DHT22;10905;50.822;4.336;2023-04-25T10:07:03;11.20;99.90
21487;DHT22;10905;50.822;4.336;2023-04-25T10:09:30;11.30;99.90
21487;DHT22;10905;50.822;4.336;2023-04-25T10:11:59;11.30;99.90
21487;DHT22;10905;50.822;4.336;2023-04-25T10:14:25;11.40;99.90
21487;DHT22;10905;50.822;4.336;2023-04-25T10:16:51;11.40;99.90
21487;DHT22;10905;50.822;4.336;2023-04-25T10:19:22;11.50;99.90
21487;DHT22;10905;50.822;4.336;2023-04-25T10:21:52;11.40;99.90
21487;DHT22;10905;50.822;4.336;2023-04-25T10:24:17;11.40;99.90
21487;DHT22;10905;50.822;4.336;2023-04-25T10:26:44;11.40;99.90
21487;DHT22;10905;50.822;4.336;2023-04-25T10:29:10;11.50;99.90
21487;DHT22;10905;50.822;4.336;2023-04-25T10:31:44;11.60;99.90
21487;DHT22;10905;50.822;4.336;2023-04-25T10:34:10;11.70;99.90
21487;DHT22;10905;50.822;4.336;2023-04-25T10:36:35;11.90;99.90
21487;DHT22;10905;50.822;4.336;2023-04-25T10:39:05;12.10;99.90
21487;DHT22;10905;50.822;4.336;2023-04-25T10:41:55;12.30;99.90
21487;DHT22;10905;50.822;4.336;2023-04-25T10:44:21;12.40;99.90
21487;DHT22;10905;50.822;4.336;2023-04-25T10:46:47;12.30;99.90
21487;DHT22;10905;50.822;4.336;2023-04-25T10:49:28;12.20;99.90
21487;DHT22;10905;50.822;4.336;2023-04-25T10:51:58;12.20;99.90
21487;DHT22;10905;50.822;4.336;2023-04-25T10:54:39;12.00;99.90
21487;DHT22;10905;50.822;4.336;2023-04-25T10:57:05;11.90;99.90
21487;DHT22;10905;50.822;4.336;2023-04-25T10:59:31;11.50;99.90
21487;DHT22;10905;50.822;4.336;2023-04-25T11:01:56;11.30;99.90
21487;DHT22;10905;50.822;4.336;2023-04-25T11:04:32;11.00;99.90
21487;DHT22;10905;50.822;4.336;2023-04-25T11:09:29;10.90;99.90
21487;DHT22;10905;50.822;4.336;2023-04-25T11:11:56;10.80;99.90
21487;DHT22;10905;50.822;4.336;2023-04-25T11:14:22;10.80;99.90
21487;DHT22;10905;50.822;4.336;2023-04-25T11:16:54;10.70;99.90
21487;DHT22;10905;50.822;4.336;2023-04-25T11:19:21;10.80;99.90
21487;DHT22;10905;50.822;4.336;2023-04-25T11:21:47;10.60;99.90
21487;DHT22;10905;50.822;4.336;2023-04-25T11:24:12;10.70;99.90
21487;DHT22;10905;50.822;4.336;2023-04-25T11:26:38;11.00;99.90
21487;DHT22;10905;50.822;4.336;2023-04-25T11:29:06;11.10;99.90
21487;DHT22;10905;50.822;4.336;2023-04-25T11:31:31;11.20;99.90
21487;DHT22;10905;50.822;4.336;2023-04-25T11:33:57;11.20;99.90
21487;DHT22;10905;50.822;4.336;2023-04-25T11:36:23;11.60;99.90
21487;DHT22;10905;50.822;4.336;2023-04-25T11:38:50;11.70;99.90
21487;DHT22;10905;50.822;4.336;2023-04-25T11:41:15;12.00;99.90
21487;DHT22;10905;50.822;4.336;2023-04-25T11:43:42;12.10;99.90
21487;DHT22;10905;50.822;4.336;2023-04-25T11:46:08;11.60;99.90
21487;DHT22;10905;50.822;4.336;2023-04-25T11:48:42;11.40;99.90
21487;DHT22;10905;50.822;4.336;2023-04-25T11:51:08;11.20;99.90
21487;DHT22;10905;50.822;4.336;2023-04-25T11:53:34;11.10;99.90
21487;DHT22;10905;50.822;4.336;2023-04-25T11:56:00;11.00;99.90
21487;DHT22;10905;50.822;4.336;2023-04-25T11:58:26;11.20;99.90
21487;DHT22;10905;50.822;4.336;2023-04-25T12:00:52;11.10;99.90
21487;DHT22;10905;50.822;4.336;2023-04-25T12:03:17;11.20;99.90
21487;DHT22;10905;50.822;4.336;2023-04-25T12:05:44;11.40;99.90
21487;DHT22;10905;50.822;4.336;2023-04-25T12:08:10;11.60;99.90
21487;DHT22;10905;50.822;4.336;2023-04-25T12:10:37;11.90;99.90
21487;DHT22;10905;50.822;4.336;2023-04-25T12:13:17;12.10;99.90
21487;DHT22;10905;50.822;4.336;2023-04-25T12:15:42;12.20;99.90
21487;DHT22;10905;50.822;4.336;2023-04-25T12:18:08;12.30;99.90
21487;DHT22;10905;50.822;4.336;2023-04-25T12:20:33;12.20;99.90
21487;DHT22;10905;50.822;4.336;2023-04-25T12:23:00;12.40;99.90
21487;DHT22;10905;50.822;4.336;2023-04-25T12:28:09;12.60;99.90
21487;DHT22;10905;50.822;4.336;2023-04-25T12:33:19;12.20;99.90
21487;DHT22;10905;50.822;4.336;2023-04-25T12:35:44;12.20;99.90
21487;DHT22;10905;50.822;4.336;2023-04-25T12:38:10;12.30;99.90
21487;DHT22;10905;50.822;4.336;2023-04-25T12:40:36;12.20;99.90
21487;DHT22;10905;50.822;4.336;2023-04-25T12:43:01;11.60;99.90
21487;DHT22;10905;50.822;4.336;2023-04-25T12:45:27;11.50;99.90
21487;DHT22;10905;50.822;4.336;2023-04-25T12:47:52;11.80;99.90
21487;DHT22;10905;50.822;4.336;2023-04-25T12:50:17;12.00;99.90
21487;DHT22;10905;50.822;4.336;2023-04-25T12:52:43;12.10;99.90
21487;DHT22;10905;50.822;4.336;2023-04-25T12:55:08;11.90;99.90
21487;DHT22;10905;50.822;4.336;2023-04-25T12:57:34;12.10;99.90
21487;DHT22;10905;50.822;4.336;2023-04-25T13:00:00;12.60;99.90
21487;DHT22;10905;50.822;4.336;2023-04-25T13:02:25;13.00;99.90
21487;DHT22;10905;50.822;4.336;2023-04-25T13:04:51;13.10;99.90
21487;DHT22;10905;50.822;4.336;2023-04-25T13:07:16;13.00;99.90
21487;DHT22;10905;50.822;4.336;2023-04-25T13:09:42;13.20;99.90
21487;DHT22;10905;50.822;4.336;2023-04-25T13:12:07;12.90;99.90
21487;DHT22;10905;50.822;4.336;2023-04-25T13:14:33;12.60;99.90
21487;DHT22;10905;50.822;4.336;2023-04-25T13:16:59;12.40;99.90
21487;DHT22;10905;50.822;4.336;2023-04-25T13:19:24;12.20;99.90
21487;DHT22;10905;50.822;4.336;2023-04-25T13:21:51;12.10;99.90
21487;DHT22;10905;50.822;4.336;2023-04-25T13:24:16;11.80;99.90
21487;DHT22;10905;50.822;4.336;2023-04-25T13:26:42;11.90;99.90
21487;DHT22;10905;50.822;4.336;2023-04-25T13:29:07;11.90;99.90
21487;DHT22;10905;50.822;4.336;2023-04-25T13:31:33;11.90;99.90
21487;DHT22;10905;50.822;4.336;2023-04-25T13:33:58;11.80;99.90
21487;DHT22;10905;50.822;4.336;2023-04-25T13:36:24;11.60;99.90
21487;DHT22;10905;50.822;4.336;2023-04-25T13:38:49;11.70;99.90
21487;DHT22;10905;50.822;4.336;2023-04-25T13:41:15;11.70;99.90
21487;DHT22;10905;50.822;4.336;2023-04-25T13:43:44;11.90;99.90
21487;DHT22;10905;50.822;4.336;2023-04-25T13:46:10;12.20;99.90
21487;DHT22;10905;50.822;4.336;2023-04-25T13:48:37;12.60;99.90
21487;DHT22;10905;50.822;4.336;2023-04-25T13:51:02;12.60;99.90
21487;DHT22;10905;50.822;4.336;2023-04-25T13:53:28;12.80;99.90
21487;DHT22;10905;50.822;4.336;2023-04-25T13:55:53;13.00;99.90
21487;DHT22;10905;50.822;4.336;2023-04-25T13:58:19;13.00;99.90
21487;DHT22;10905;50.822;4.336;2023-04-25T14:00:45;13.00;99.90
21487;DHT22;10905;50.822;4.336;2023-04-25T14:03:12;12.70;99.90
21487;DHT22;10905;50.822;4.336;2023-04-25T14:05:37;12.70;99.90
21487;DHT22;10905;50.822;4.336;2023-04-25T14:08:04;12.70;99.90
21487;DHT22;10905;50.822;4.336;2023-04-25T14:10:29;12.70;99.90
21487;DHT22;10905;50.822;4.336;2023-04-25T14:12:55;12.90;99.90
21487;DHT22;10905;50.822;4.336;2023-04-25T14:15:20;12.90;99.90
21487;DHT22;10905;50.822;4.336;2023-04-25T14:17:46;12.70;99.90
21487;DHT22;10905;50.822;4.336;2023-04-25T14:20:13;12.60;99.90
21487;DHT22;10905;50.822;4.336;2023-04-25T14:22:39;12.40;99.90
21487;DHT22;10905;50.822;4.336;2023-04-25T14:25:08;12.30;99.90
21487;DHT22;10905;50.822;4.336;2023-04-25T14:27:34;12.20;99.90
21487;DHT22;10905;50.822;4.336;2023-04-25T14:29:59;12.00;99.90
21487;DHT22;10905;50.822;4.336;2023-04-25T14:32:25;11.90;99.90
21487;DHT22;10905;50.822;4.336;2023-04-25T14:34:51;11.90;99.90
21487;DHT22;10905;50.822;4.336;2023-04-25T14:37:16;11.90;99.90
21487;DHT22;10905;50.822;4.336;2023-04-25T14:39:42;12.10;99.90
21487;DHT22;10905;50.822;4.336;2023-04-25T14:42:07;12.20;99.90
21487;DHT22;10905;50.822;4.336;2023-04-25T14:44:33;12.30;99.90
21487;DHT22;10905;50.822;4.336;2023-04-25T14:46:58;12.50;99.90
21487;DHT22;10905;50.822;4.336;2023-04-25T14:49:24;12.60;99.90
21487;DHT22;10905;50.822;4.336;2023-04-25T14:51:50;12.40;99.90
21487;DHT22;10905;50.822;4.336;2023-04-25T14:54:16;12.40;99.90
21487;DHT22;10905;50.822;4.336;2023-04-25T14:56:42;12.50;99.90
21487;DHT22;10905;50.822;4.336;2023-04-25T14:59:07;12.20;99.90
21487;DHT22;10905;50.822;4.336;2023-04-25T15:01:33;12.30;99.90
21487;DHT22;10905;50.822;4.336;2023-04-25T15:03:58;12.40;99.90
21487;DHT22;10905;50.822;4.336;2023-04-25T15:06:24;12.40;99.90
21487;DHT22;10905;50.822;4.336;2023-04-25T15:08:52;12.60;99.90
21487;DHT22;10905;50.822;4.336;2023-04-25T15:11:18;12.70;99.90
21487;DHT22;10905;50.822;4.336;2023-04-25T15:13:44;12.60;99.90
21487;DHT22;10905;50.822;4.336;2023-04-25T15:16:09;12.80;99.90
21487;DHT22;10905;50.822;4.336;2023-04-25T15:18:36;12.80;99.90
21487;DHT22;10905;50.822;4.336;2023-04-25T15:21:01;12.90;99.90
21487;DHT22;10905;50.822;4.336;2023-04-25T15:23:27;12.90;99.90
21487;DHT22;10905;50.822;4.336;2023-04-25T15:25:53;13.20;99.90
21487;DHT22;10905;50.822;4.336;2023-04-25T15:28:18;13.20;99.90
21487;DHT22;10905;50.822;4.336;2023-04-25T15:30:46;13.20;99.90
21487;DHT22;10905;50.822;4.336;2023-04-25T15:33:12;13.20;99.90
21487;DHT22;10905;50.822;4.336;2023-04-25T15:35:38;12.80;99.90
21487;DHT22;10905;50.822;4.336;2023-04-25T15:38:04;12.50;99.90
21487;DHT22;10905;50.822;4.336;2023-04-25T15:40:30;12.30;99.90